Map

Track Data

SID SEASON NUMBER BASIN SUBBASIN NAME ISO_TIME NATURE LAT LON WMO_WIND WMO_PRES WMO_AGENCY TRACK_TYPE DIST2LAND LANDFALL IFLAG USA_AGENCY USA_ATCF_ID USA_LAT USA_LON USA_RECORD USA_STATUS USA_WIND USA_PRES USA_SSHS USA_R34_NE USA_R34_SE USA_R34_SW USA_R34_NW USA_R50_NE USA_R50_SE USA_R50_SW USA_R50_NW USA_R64_NE USA_R64_SE USA_R64_SW USA_R64_NW USA_POCI USA_ROCI USA_RMW USA_EYE TOKYO_LAT TOKYO_LON TOKYO_GRADE TOKYO_WIND TOKYO_PRES TOKYO_R50_DIR TOKYO_R50_LONG TOKYO_R50_SHORT TOKYO_R30_DIR TOKYO_R30_LONG TOKYO_R30_SHORT TOKYO_LAND CMA_LAT CMA_LON CMA_CAT CMA_WIND CMA_PRES HKO_LAT HKO_LON HKO_CAT HKO_WIND HKO_PRES NEWDELHI_LAT NEWDELHI_LON NEWDELHI_GRADE NEWDELHI_WIND NEWDELHI_PRES NEWDELHI_CI NEWDELHI_DP NEWDELHI_POCI REUNION_LAT REUNION_LON REUNION_TYPE REUNION_WIND REUNION_PRES REUNION_TNUM REUNION_CI REUNION_RMW REUNION_R34_NE REUNION_R34_SE REUNION_R34_SW REUNION_R34_NW REUNION_R50_NE REUNION_R50_SE REUNION_R50_SW REUNION_R50_NW REUNION_R64_NE REUNION_R64_SE REUNION_R64_SW REUNION_R64_NW BOM_LAT BOM_LON BOM_TYPE BOM_WIND BOM_PRES BOM_TNUM BOM_CI BOM_RMW BOM_R34_NE BOM_R34_SE BOM_R34_SW BOM_R34_NW BOM_R50_NE BOM_R50_SE BOM_R50_SW BOM_R50_NW BOM_R64_NE BOM_R64_SE BOM_R64_SW BOM_R64_NW BOM_ROCI BOM_POCI BOM_EYE BOM_POS_METHOD BOM_PRES_METHOD NADI_LAT NADI_LON NADI_CAT NADI_WIND NADI_PRES WELLINGTON_LAT WELLINGTON_LON WELLINGTON_WIND WELLINGTON_PRES DS824_LAT DS824_LON DS824_STAGE DS824_WIND DS824_PRES TD9636_LAT TD9636_LON TD9636_STAGE TD9636_WIND TD9636_PRES TD9635_LAT TD9635_LON TD9635_WIND TD9635_PRES TD9635_ROCI NEUMANN_LAT NEUMANN_LON NEUMANN_CLASS NEUMANN_WIND NEUMANN_PRES MLC_LAT MLC_LON MLC_CLASS MLC_WIND MLC_PRES USA_GUST BOM_GUST BOM_GUST_PER REUNION_GUST REUNION_GUST_PER USA_SEAHGT USA_SEARAD_NE USA_SEARAD_SE USA_SEARAD_SW USA_SEARAD_NW STORM_SPEED STORM_DIR
1908289N12282 1908 47 NA CS NOT_NAMED 1908-10-14 12:00:00 TS 11.7000 -78.5000 30 hurdat_atl main 255 252 O_____________ hurdat_atl AL091908 11.7000 -78.5000 TD 30 -1 3 270
1908289N12282 1908 47 NA CS NOT_NAMED 1908-10-14 15:00:00 TS 11.7000 -78.6400 main 252 248 P_____________ AL091908 11.7000 -78.6400 TD 30 -1 3 270
1908289N12282 1908 47 NA CS NOT_NAMED 1908-10-14 18:00:00 TS 11.7000 -78.8000 30 hurdat_atl main 248 246 O_____________ hurdat_atl AL091908 11.7000 -78.8000 TD 30 -1 3 270
1908289N12282 1908 47 NA CS NOT_NAMED 1908-10-14 21:00:00 TS 11.7000 -78.9925 main 246 246 P_____________ AL091908 11.7000 -78.9925 TD 32 -1 4 270
1908289N12282 1908 47 NA CS NOT_NAMED 1908-10-15 00:00:00 TS 11.7000 -79.2000 35 hurdat_atl main 246 246 O_____________ hurdat_atl AL091908 11.7000 -79.2000 TS 35 0 4 270
1908289N12282 1908 47 NA CS NOT_NAMED 1908-10-15 03:00:00 TS 11.7000 -79.4000 main 246 246 P_____________ AL091908 11.7000 -79.4000 TS 37 0 4 270
1908289N12282 1908 47 NA CS NOT_NAMED 1908-10-15 06:00:00 TS 11.7000 -79.6000 40 hurdat_atl main 246 246 O_____________ hurdat_atl AL091908 11.7000 -79.6000 TS 40 0 4 270
1908289N12282 1908 47 NA CS NOT_NAMED 1908-10-15 09:00:00 TS 11.7000 -79.8075 main 246 246 P_____________ AL091908 11.7000 -79.8075 TS 42 0 4 270
1908289N12282 1908 47 NA CS NOT_NAMED 1908-10-15 12:00:00 TS 11.7000 -80.0000 45 hurdat_atl main 248 248 O_____________ hurdat_atl AL091908 11.7000 -80.0000 TS 45 0 3 269
1908289N12282 1908 47 NA CS NOT_NAMED 1908-10-15 15:00:00 TS 11.6925 -80.1500 main 252 252 P_____________ AL091908 11.6925 -80.1500 TS 45 0 3 270
1908289N12282 1908 47 NA CS NOT_NAMED 1908-10-15 18:00:00 TS 11.7000 -80.3000 45 hurdat_atl main 255 255 O_____________ hurdat_atl AL091908 11.7000 -80.3000 TS 45 0 3 278
1908289N12282 1908 47 NA CS NOT_NAMED 1908-10-15 21:00:00 TS 11.7425 -80.4925 main 261 261 P_____________ AL091908 11.7425 -80.4925 TS 47 0 4 284
1908289N12282 1908 47 NA CS NOT_NAMED 1908-10-16 00:00:00 TS 11.8000 -80.7000 50 hurdat_atl main 279 279 O_____________ hurdat_atl AL091908 11.8000 -80.7000 TS 50 0 4 285
1908289N12282 1908 47 NA CS NOT_NAMED 1908-10-16 03:00:00 TS 11.8500 -80.9000 main 289 267 P_____________ AL091908 11.8500 -80.9000 TS 55 0 4 284
1908289N12282 1908 47 NA CS NOT_NAMED 1908-10-16 06:00:00 TS 11.9000 -81.1000 60 hurdat_atl main 267 245 O_____________ hurdat_atl AL091908 11.9000 -81.1000 TS 60 0 4 284
1908289N12282 1908 47 NA CS NOT_NAMED 1908-10-16 09:00:00 TS 11.9500 -81.3075 main 243 222 P_____________ AL091908 11.9500 -81.3075 TS 62 0 4 284
1908289N12282 1908 47 NA CS NOT_NAMED 1908-10-16 12:00:00 TS 12.0000 -81.5000 65 hurdat_atl main 222 211 O_____________ hurdat_atl AL091908 12.0000 -81.5000 HU 65 1 4 286
1908289N12282 1908 47 NA CS NOT_NAMED 1908-10-16 15:00:00 TS 12.0500 -81.6575 main 200 187 P_____________ AL091908 12.0500 -81.6575 HU 67 1 3 289
1908289N12282 1908 47 NA CS NOT_NAMED 1908-10-16 18:00:00 TS 12.1000 -81.8000 70 hurdat_atl main 187 177 O_____________ hurdat_atl AL091908 12.1000 -81.8000 HU 70 1 3 289
1908289N12282 1908 47 NA CS NOT_NAMED 1908-10-16 21:00:00 TS 12.1500 -81.9500 main 166 153 P_____________ AL091908 12.1500 -81.9500 HU 72 1 3 289
1908289N12282 1908 47 NA CS NOT_NAMED 1908-10-17 00:00:00 TS 12.2000 -82.1000 75 hurdat_atl main 153 143 O_____________ hurdat_atl AL091908 12.2000 -82.1000 HU 75 1 3 288
1908289N12282 1908 47 NA CS NOT_NAMED 1908-10-17 03:00:00 TS 12.2425 -82.2500 main 132 120 P_____________ AL091908 12.2425 -82.2500 HU 77 1 3 289
1908289N12282 1908 47 NA CS NOT_NAMED 1908-10-17 06:00:00 TS 12.3000 -82.4000 80 hurdat_atl main 120 108 O_____________ hurdat_atl AL091908 12.3000 -82.4000 HU 80 1 3 298
1908289N12282 1908 47 NA CS NOT_NAMED 1908-10-17 09:00:00 TS 12.4000 -82.5500 main 108 86 P_____________ AL091908 12.4000 -82.5500 HU 82 1 4 304
1908289N12282 1908 47 NA CS NOT_NAMED 1908-10-17 12:00:00 TS 12.5000 -82.7000 85 hurdat_atl main 86 76 O_____________ hurdat_atl AL091908 12.5000 -82.7000 HU 85 2 3 299
1908289N12282 1908 47 NA CS NOT_NAMED 1908-10-17 15:00:00 TS 12.5575 -82.8425 main 76 54 P_____________ AL091908 12.5575 -82.8425 HU 87 2 3 289
1908289N12282 1908 47 NA CS NOT_NAMED 1908-10-17 18:00:00 TS 12.6000 -83.0000 90 hurdat_atl main 54 32 O_____________ hurdat_atl AL091908 12.6000 -83.0000 HU 90 2 4 285
1908289N12282 1908 47 NA CS NOT_NAMED 1908-10-17 21:00:00 TS 12.6500 -83.2000 main 32 10 P_____________ AL091908 12.6500 -83.2000 HU 90 2 4 284
1908289N12282 1908 47 NA CS NOT_NAMED 1908-10-18 00:00:00 TS 12.7000 -83.4000 90 hurdat_atl main 10 0 O_____________ hurdat_atl AL091908 12.7000 -83.4000 HU 90 2 4 285
1908289N12282 1908 47 NA CS NOT_NAMED 1908-10-18 03:00:00 TS 12.7425 -83.5575 main 0 0 P_____________ AL091908 12.7425 -83.5575 HU 77 1 3 289
1908289N12282 1908 47 NA CS NOT_NAMED 1908-10-18 06:00:00 TS 12.8000 -83.7000 65 hurdat_atl main 0 0 O_____________ hurdat_atl AL091908 12.8000 -83.7000 HU 65 1 3 297
1908289N12282 1908 47 NA NA NOT_NAMED 1908-10-18 09:00:00 TS 12.8850 -83.8500 main 0 0 P_____________ AL091908 12.8850 -83.8500 HU 57 0 4 304
1908289N12282 1908 47 NA NA NOT_NAMED 1908-10-18 12:00:00 TS 13.0000 -84.0000 50 hurdat_atl main 0 0 O_____________ hurdat_atl AL091908 13.0000 -84.0000 TS 50 0 4 311
1908289N12282 1908 47 NA NA NOT_NAMED 1908-10-18 15:00:00 TS 13.1275 -84.1351 main 0 0 P_____________ AL091908 13.1275 -84.1351 TS 42 0 4 316
1908289N12282 1908 47 NA NA NOT_NAMED 1908-10-18 18:00:00 TS 13.3000 -84.3000 35 hurdat_atl main 0 0 O_____________ hurdat_atl AL091908 13.3000 -84.3000 TS 35 0 5 316
1908289N12282 1908 47 NA NA NOT_NAMED 1908-10-18 21:00:00 TS 13.5200 -84.5201 main 0 0 P_____________ AL091908 13.5200 -84.5201 TS 32 -1 7 316
1908289N12282 1908 47 NA NA NOT_NAMED 1908-10-19 00:00:00 TS 13.8000 -84.8000 30 hurdat_atl main 0 0 O_____________ hurdat_atl AL091908 13.8000 -84.8000 TD 30 -1 9 316
1908289N12282 1908 47 NA NA NOT_NAMED 1908-10-19 03:00:00 TS 14.1351 -85.1347 main 0 0 P_____________ AL091908 14.1351 -85.1347 TD 27 -1 10 316
1908289N12282 1908 47 NA NA NOT_NAMED 1908-10-19 06:00:00 TS 14.5000 -85.5000 25 hurdat_atl main 0 O_____________ hurdat_atl AL091908 14.5000 -85.5000 TD 25 -1 10 316

About IBTrACS Database

This database is a web-friendly format of International Best Track Archive for Climate Stewardship (IBTrACS), a global best track data archive curated by NOAA dating back to 1842.

Updated: 2021-11-26